Time;durP1;ratioP1;P1;durP2;ratioP2;P2;SDS_P1;SDS_P2;PMS_P1;PMS_P2;Temp;Humidity;BMP_temperature;BMP_pressure;BME280_temperature;BME280_humidity;BME280_pressure;Samples;Min_cycle;Max_cycle;Signal;HPM_P1;HPM_P2
2023/12/19 00:00:29;;;;;;;6.80;5.60;;;;;;;1.76;100.00;100266.59;5093493;28;20482;-69
2023/12/19 00:02:55;;;;;;;7.13;5.60;;;;;;;1.73;100.00;100264.19;5093409;28;20047;-66
2023/12/19 00:05:21;;;;;;;9.03;6.80;;;;;;;1.37;100.00;100220.63;5092514;28;20035;-67
2023/12/19 00:07:47;;;;;;;8.80;6.37;;;;;;;1.55;100.00;100255.97;5093369;28;20282;-66
2023/12/19 00:10:13;;;;;;;11.93;8.10;;;;;;;1.31;100.00;100221.09;5092975;28;20081;-66
2023/12/19 00:12:38;;;;;;;12.27;8.37;;;;;;;1.48;100.00;100255.59;5092725;28;20043;-65
2023/12/19 00:15:08;;;;;;;15.70;10.30;;;;;;;1.40;100.00;100236.13;5093838;28;20043;-67
2023/12/19 00:17:34;;;;;;;12.27;8.70;;;;;;;1.40;100.00;100223.84;5093534;28;20040;-66
2023/12/19 00:19:59;;;;;;;14.73;8.80;;;;;;;1.44;100.00;100217.41;5093586;28;20308;-66
2023/12/19 00:22:25;;;;;;;12.40;8.37;;;;;;;1.57;100.00;100217.31;5091999;28;20057;-67
2023/12/19 00:24:51;;;;;;;16.23;10.07;;;;;;;1.45;100.00;100190.22;5093178;28;20411;-67
2023/12/19 00:27:17;;;;;;;17.03;9.87;;;;;;;1.54;100.00;100197.38;5093326;28;20055;-66
2023/12/19 00:29:43;;;;;;;18.43;12.40;;;;;;;1.36;100.00;100169.94;5075101;28;20266;-66
2023/12/19 00:32:08;;;;;;;17.30;11.17;;;;;;;1.46;100.00;100167.44;5092832;28;20036;-65
2023/12/19 00:34:34;;;;;;;16.53;10.40;;;;;;;1.50;100.00;100164.47;5093003;28;20471;-67
2023/12/19 00:37:00;;;;;;;14.10;9.20;;;;;;;1.63;100.00;100179.25;5093218;28;20126;-64
2023/12/19 00:39:27;;;;;;;10.20;8.20;;;;;;;1.57;100.00;100164.81;5091778;28;20048;-65
2023/12/19 00:41:53;;;;;;;12.03;7.93;;;;;;;1.57;100.00;100158.72;5094604;28;20032;-64
2023/12/19 00:44:18;;;;;;;13.27;8.37;;;;;;;1.42;100.00;100132.72;5093204;28;20356;-66
2023/12/19 00:46:44;;;;;;;9.53;6.87;;;;;;;1.53;100.00;100145.03;5093799;28;20042;-66
2023/12/19 00:49:10;;;;;;;12.00;8.13;;;;;;;1.63;100.00;100155.63;5092576;28;20039;-66
2023/12/19 00:51:37;;;;;;;11.83;7.80;;;;;;;1.49;100.00;100128.69;5092695;28;20040;-65
2023/12/19 00:54:02;;;;;;;12.47;7.73;;;;;;;1.51;100.00;100129.41;5092559;28;20360;-66
2023/12/19 00:56:28;;;;;;;11.80;8.67;;;;;;;1.50;100.00;100111.97;5092671;28;20258;-65
2023/12/19 00:58:53;;;;;;;12.87;8.80;;;;;;;1.46;100.00;100094.81;5092343;28;20058;-66
2023/12/19 01:01:23;;;;;;;12.23;8.33;;;;;;;1.58;100.00;100113.16;5092444;28;20061;-68
2023/12/19 01:03:49;;;;;;;8.73;7.53;;;;;;;1.50;100.00;100088.38;5092756;28;20073;-67
2023/12/19 01:06:15;;;;;;;9.83;7.47;;;;;;;1.58;100.00;100107.91;5092479;28;20254;-65
2023/12/19 01:08:41;;;;;;;8.53;6.70;;;;;;;1.55;100.00;100095.88;5092283;28;20487;-66
2023/12/19 01:11:09;;;;;;;6.73;5.60;;;;;;;1.43;100.00;100075.81;5092318;28;20057;-65
2023/12/19 01:13:38;;;;;;;8.32;5.85;;;;;;;1.54;100.00;100076.66;5090976;28;20080;-65
2023/12/19 01:16:05;;;;;;;8.53;6.70;;;;;;;1.51;100.00;100061.16;5092043;28;20370;-66
2023/12/19 01:18:31;;;;;;;8.30;6.20;;;;;;;1.54;100.00;100079.28;5091931;28;20429;-65
2023/12/19 01:20:56;;;;;;;7.00;5.27;;;;;;;1.44;100.00;100051.25;5092277;28;20663;-65
2023/12/19 01:23:23;;;;;;;6.43;5.23;;;;;;;1.57;100.00;100085.25;5092035;28;20272;-66
2023/12/19 01:25:49;;;;;;;6.13;4.70;;;;;;;1.59;100.00;100078.09;5092321;28;20063;-67
2023/12/19 01:28:14;;;;;;;6.57;5.43;;;;;;;1.60;100.00;100079.75;5090897;28;20294;-67
2023/12/19 01:30:41;;;;;;;5.40;4.90;;;;;;;1.59;100.00;100083.34;5092226;28;20036;-67
2023/12/19 01:33:09;;;;;;;5.57;4.80;;;;;;;1.45;100.00;100061.66;5090760;28;20039;-67
2023/12/19 01:35:38;;;;;;;5.88;4.65;;;;;;;1.59;100.00;100072.84;5090638;28;20305;-66
2023/12/19 01:38:04;;;;;;;5.72;5.13;;;;;;;1.18;100.00;100001.72;5091814;28;20392;-66
2023/12/19 01:40:31;;;;;;;6.70;5.13;;;;;;;1.51;100.00;100044.59;5074207;28;20047;-67
2023/12/19 01:43:00;;;;;;;5.73;4.60;;;;;;;1.49;100.00;100033.38;5092099;28;20036;-66
2023/12/19 01:45:27;;;;;;;;;;;;;;;1.63;100.00;100046.22;5092489;28;20266;-66
2023/12/19 01:47:53;;;;;;;6.50;5.13;;;;;;;1.60;100.00;100033.34;5091963;28;19916;-68
2023/12/19 01:50:19;;;;;;;6.97;5.43;;;;;;;1.44;100.00;100012.72;5090347;28;20265;-68
2023/12/19 01:52:53;;;;;;;5.77;5.27;;;;;;;1.51;100.00;100029.69;5091737;28;20031;-66
2023/12/19 01:55:21;;;;;;;6.80;5.57;;;;;;;1.54;100.00;100029.44;5090641;28;20274;-65
2023/12/19 01:57:47;;;;;;;5.70;5.17;;;;;;;1.46;100.00;100005.59;5091950;28;20320;-64
2023/12/19 02:00:14;;;;;;;6.77;5.43;;;;;;;1.54;100.00;100018.94;5073619;28;20365;-65
2023/12/19 02:02:44;;;;;;;6.37;5.00;;;;;;;1.54;100.00;100015.47;5090226;28;20355;-65
2023/12/19 02:05:10;;;;;;;5.03;4.23;;;;;;;1.47;100.00;100004.66;5091429;28;20266;-69
2023/12/19 02:07:36;;;;;;;4.47;3.90;;;;;;;1.33;100.00;99983.91;5091560;28;20289;-65
2023/12/19 02:10:01;;;;;;;3.30;3.00;;;;;;;1.46;100.00;99995.09;5091532;28;20039;-65
2023/12/19 02:12:31;;;;;;;3.33;3.03;;;;;;;1.50;100.00;99974.69;5091430;28;20044;-64
2023/12/19 02:14:58;;;;;;;3.70;3.20;;;;;;;1.37;100.00;99932.84;5091262;28;20443;-67
2023/12/19 02:17:26;;;;;;;4.37;3.50;;;;;;;1.49;100.00;99931.03;5091307;28;20321;-65
2023/12/19 02:19:52;;;;;;;5.68;3.92;;;;;;;1.47;100.00;99930.34;5090922;28;20625;-64
2023/12/19 02:22:18;;;;;;;4.60;4.00;;;;;;;1.45;100.00;99917.34;5091703;28;20035;-67
2023/12/19 02:24:44;;;;;;;4.80;4.40;;;;;;;1.52;100.00;99921.13;5090233;28;20047;-66
2023/12/19 02:27:11;;;;;;;6.03;4.47;;;;;;;1.48;100.00;99911.84;5091372;28;20036;-67
2023/12/19 02:29:37;;;;;;;6.60;5.90;;;;;;;1.57;100.00;99901.53;5091489;28;20294;-65
2023/12/19 02:32:03;;;;;;;6.90;5.60;;;;;;;1.49;100.00;99876.78;5091401;28;20682;-66
2023/12/19 02:34:29;;;;;;;7.07;5.67;;;;;;;1.48;100.00;99867.25;5093326;28;20040;-69
2023/12/19 02:36:55;;;;;;;9.93;6.07;;;;;;;1.59;100.00;99878.63;5096206;28;20365;-67
2023/12/19 02:39:21;;;;;;;6.10;5.47;;;;;;;1.61;100.00;99887.22;5095496;28;20381;-66
2023/12/19 02:41:46;;;;;;;5.70;4.87;;;;;;;1.57;100.00;99894.50;5098273;28;20089;-68
2023/12/19 02:44:12;;;;;;;5.27;4.77;;;;;;;1.50;100.00;99882.84;5096501;28;20395;-67
2023/12/19 02:46:38;;;;;;;5.30;4.80;;;;;;;1.36;100.00;99852.50;5095280;28;20079;-66
2023/12/19 02:49:04;;;;;;;5.23;4.73;;;;;;;1.44;100.00;99864.97;5094075;28;20475;-66
2023/12/19 02:51:30;;;;;;;4.97;4.47;;;;;;;1.34;100.00;99835.22;5095599;28;20503;-68
2023/12/19 02:53:57;;;;;;;4.63;4.23;;;;;;;1.27;100.00;99816.53;5094389;28;20028;-67
2023/12/19 02:56:23;;;;;;;3.80;3.40;;;;;;;1.39;100.00;99836.50;5094144;28;20261;-67
2023/12/19 02:58:49;;;;;;;3.57;3.27;;;;;;;1.47;100.00;99833.25;5094132;28;20293;-66
2023/12/19 03:01:15;;;;;;;5.17;3.97;;;;;;;1.23;100.00;99791.50;5095804;28;20282;-68
2023/12/19 03:03:42;;;;;;;4.07;3.00;;;;;;;1.47;100.00;99828.00;5094318;28;20078;-67
2023/12/19 03:06:08;;;;;;;3.60;3.20;;;;;;;1.36;100.00;99799.19;5095693;28;20281;-66
2023/12/19 03:08:36;;;;;;;2.47;2.27;;;;;;;1.59;100.00;99820.91;5095735;28;20266;-66
2023/12/19 03:11:02;;;;;;;3.83;2.90;;;;;;;1.23;100.00;99753.00;5098593;28;20039;-68
2023/12/19 03:13:28;;;;;;;4.57;2.80;;;;;;;1.48;100.00;99783.28;5095109;28;20110;-70
2023/12/19 03:15:56;;;;;;;2.90;2.37;;;;;;;1.48;100.00;99775.41;5094916;28;20282;-68
2023/12/19 03:18:25;;;;;;;3.30;2.83;;;;;;;1.44;100.00;99755.59;5097931;28;20047;-65
2023/12/19 03:20:54;;;;;;;3.08;2.78;;;;;;;1.44;100.00;99736.41;5094849;28;20046;-68
2023/12/19 03:23:21;;;;;;;2.67;2.47;;;;;;;1.67;100.00;99752.84;5094796;28;20043;-67
2023/12/19 03:25:47;;;;;;;3.20;2.90;;;;;;;1.74;100.00;99754.00;5094869;28;20043;-65
2023/12/19 03:28:13;;;;;;;6.30;2.97;;;;;;;1.79;100.00;99754.44;5095164;28;20629;-66
2023/12/19 03:30:39;;;;;;;3.33;2.37;;;;;;;1.80;100.00;99729.84;5096915;28;20266;-66
2023/12/19 03:33:04;;;;;;;2.87;2.57;;;;;;;1.68;100.00;99702.00;5094554;28;20040;-64
2023/12/19 03:35:30;;;;;;;3.53;3.20;;;;;;;1.74;100.00;99688.38;5094267;28;20487;-68
2023/12/19 03:37:56;;;;;;;3.97;3.57;;;;;;;1.86;100.00;99692.56;5094557;28;20071;-65
2023/12/19 03:40:21;;;;;;;5.40;4.07;;;;;;;1.61;100.00;99635.28;5099352;28;20039;-66
2023/12/19 03:42:48;;;;;;;5.77;3.80;;;;;;;1.96;100.00;99668.94;5097486;28;20581;-66
2023/12/19 03:45:14;;;;;;;4.50;3.07;;;;;;;1.93;100.00;99646.41;5100940;28;20044;-67
2023/12/19 03:47:40;;;;;;;3.67;2.60;;;;;;;1.98;100.00;99653.88;5101037;28;20281;-66
2023/12/19 03:50:06;;;;;;;3.30;2.50;;;;;;;1.98;100.00;99636.34;5096200;28;20266;-66
2023/12/19 03:52:32;;;;;;;3.47;2.33;;;;;;;2.01;100.00;99633.44;5102269;28;20066;-65
2023/12/19 03:54:57;;;;;;;3.90;2.10;;;;;;;1.93;100.00;99630.66;5099388;28;20270;-67
2023/12/19 03:57:23;;;;;;;4.00;1.90;;;;;;;1.92;100.00;99615.88;5099016;28;20027;-65
2023/12/19 03:59:49;;;;;;;2.47;2.27;;;;;;;1.92;100.00;99596.66;5097338;28;20040;-64
2023/12/19 04:02:15;;;;;;;2.37;1.60;;;;;;;1.41;100.00;99492.69;5096869;28;20739;-64
2023/12/19 04:04:41;;;;;;;1.70;1.60;;;;;;;2.01;100.00;99578.28;5094072;28;20293;-65
2023/12/19 04:07:07;;;;;;;2.47;2.10;;;;;;;1.94;100.00;99558.81;5095521;28;20036;-66
2023/12/19 04:09:33;;;;;;;1.87;1.73;;;;;;;1.68;100.00;99505.16;5095745;28;20127;-65
2023/12/19 04:12:02;;;;;;;6.40;2.07;;;;;;;2.02;100.00;99551.06;5078250;28;20122;-66
2023/12/19 04:14:29;;;;;;;3.35;2.50;;;;;;;2.10;100.00;99543.34;5094982;28;20308;-65
2023/12/19 04:16:55;;;;;;;2.37;2.00;;;;;;;2.12;100.00;99541.41;5093993;28;20135;-65
2023/12/19 04:19:21;;;;;;;4.43;3.17;;;;;;;2.10;100.00;99511.00;5092743;28;20669;-65
2023/12/19 04:21:48;;;;;;;3.37;2.90;;;;;;;2.09;100.00;99501.47;5093527;28;20264;-65
2023/12/19 04:24:14;;;;;;;6.20;3.63;;;;;;;2.00;100.00;99489.97;5095038;28;20089;-66
2023/12/19 04:26:41;;;;;;;3.10;2.50;;;;;;;1.75;100.00;99449.38;5093399;28;20297;-66
2023/12/19 04:29:08;;;;;;;3.43;2.20;;;;;;;2.03;100.00;99488.91;5092277;28;20268;-66
2023/12/19 04:31:33;;;;;;;3.13;2.33;;;;;;;2.05;100.00;99485.16;5094841;28;20398;-67
2023/12/19 04:33:59;;;;;;;2.27;2.00;;;;;;;2.02;100.00;99461.78;5094069;28;20853;-66
2023/12/19 04:36:25;;;;;;;2.83;2.17;;;;;;;2.06;100.00;99460.56;5094042;28;20065;-64
2023/12/19 04:38:51;;;;;;;3.00;2.67;;;;;;;1.96;100.00;99443.97;5094183;28;20308;-65
2023/12/19 04:41:16;;;;;;;2.83;2.63;;;;;;;2.06;100.00;99454.47;5093380;28;20028;-66
2023/12/19 04:43:42;;;;;;;3.77;2.67;;;;;;;1.67;100.00;99388.03;5093130;28;20036;-66
2023/12/19 04:46:08;;;;;;;3.80;3.00;;;;;;;1.97;100.00;99435.13;5091692;28;20475;-67
2023/12/19 04:48:34;;;;;;;3.70;3.20;;;;;;;1.87;100.00;99421.19;5091874;28;20567;-68
2023/12/19 04:51:00;;;;;;;3.57;3.27;;;;;;;1.99;100.00;99417.41;5091814;28;20028;-66
2023/12/19 04:53:26;;;;;;;3.53;3.23;;;;;;;1.91;100.00;99398.91;5092946;28;20788;-66
2023/12/19 04:55:52;;;;;;;3.67;3.20;;;;;;;2.00;100.00;99408.56;5093223;28;20265;-67
2023/12/19 04:58:18;;;;;;;4.47;3.60;;;;;;;2.01;100.00;99401.53;5093377;28;20278;-66
2023/12/19 05:00:43;;;;;;;4.50;3.80;;;;;;;1.94;100.00;99385.50;5092747;28;20443;-67
2023/12/19 05:03:09;;;;;;;6.00;3.90;;;;;;;1.60;100.00;99323.97;5091191;28;20570;-67
2023/12/19 05:05:35;;;;;;;5.03;4.47;;;;;;;1.95;100.00;99374.03;5091286;28;20081;-66
2023/12/19 05:08:01;;;;;;;5.57;5.07;;;;;;;1.91;100.00;99356.91;5093126;28;20107;-65
2023/12/19 05:10:26;;;;;;;7.90;5.07;;;;;;;1.74;100.00;99339.28;5094753;28;20100;-66
2023/12/19 05:12:52;;;;;;;6.03;5.43;;;;;;;1.68;100.00;99324.06;5098702;28;20524;-66
2023/12/19 05:15:17;;;;;;;6.93;5.90;;;;;;;1.75;100.00;99333.88;5097175;28;20063;-63
2023/12/19 05:17:44;;;;;;;6.13;5.33;;;;;;;1.76;100.00;99318.97;5093089;28;20036;-67
2023/12/19 05:20:10;;;;;;;8.67;5.43;;;;;;;1.85;100.00;99323.38;5094609;28;20044;-62
2023/12/19 05:22:35;;;;;;;7.53;5.40;;;;;;;1.76;100.00;99290.94;5096121;28;20311;-66
2023/12/19 05:25:01;;;;;;;6.13;5.43;;;;;;;1.83;100.00;99299.88;5093740;28;20365;-66
2023/12/19 05:27:26;;;;;;;6.57;5.33;;;;;;;1.82;100.00;99285.09;5093617;28;20063;-65
2023/12/19 05:29:52;;;;;;;6.60;5.03;;;;;;;1.81;100.00;99280.00;5095331;28;20036;-64
2023/12/19 05:32:17;;;;;;;6.73;5.50;;;;;;;1.66;100.00;99255.16;5099877;28;20036;-64
2023/12/19 05:34:43;;;;;;;7.40;5.93;;;;;;;1.81;100.00;99259.00;5095014;28;20519;-66
2023/12/19 05:37:08;;;;;;;18.00;15.23;;;;;;;1.50;100.00;99187.56;5090561;28;20040;-66
2023/12/19 05:39:34;;;;;;;13.93;12.03;;;;;;;1.88;100.00;99240.88;5092066;28;20105;-66
2023/12/19 05:42:00;;;;;;;8.80;7.07;;;;;;;1.79;100.00;99211.06;5092681;28;20127;-65
2023/12/19 05:44:25;;;;;;;5.80;5.00;;;;;;;1.76;100.00;99198.25;5091576;28;20044;-67
2023/12/19 05:46:51;;;;;;;8.23;5.90;;;;;;;1.54;100.00;99153.00;5092296;28;20114;-66
2023/12/19 05:49:18;;;;;;;5.43;4.53;;;;;;;1.88;100.00;99202.31;5090961;28;20521;-66
2023/12/19 05:51:44;;;;;;;5.53;3.83;;;;;;;1.96;100.00;99193.69;5091866;28;20657;-66
2023/12/19 05:54:10;;;;;;;6.50;4.00;;;;;;;1.89;100.00;99151.47;5091866;28;20270;-67
2023/12/19 05:56:36;;;;;;;5.13;3.93;;;;;;;1.91;100.00;99149.50;5092361;28;20402;-66
2023/12/19 05:59:02;;;;;;;4.70;3.83;;;;;;;2.08;100.00;99168.91;5090258;28;20028;-65
2023/12/19 06:01:27;;;;;;;4.97;3.50;;;;;;;1.96;100.00;99147.28;5091764;28;20284;-66
2023/12/19 06:03:54;;;;;;;5.60;3.70;;;;;;;2.02;100.00;99141.44;5092236;28;20071;-68
2023/12/19 06:06:19;;;;;;;3.83;3.30;;;;;;;1.90;100.00;99121.63;5091721;28;20043;-68
2023/12/19 06:08:45;;;;;;;4.57;3.93;;;;;;;2.10;100.00;99143.34;5091501;28;20262;-68
2023/12/19 06:11:11;;;;;;;4.70;3.70;;;;;;;1.85;100.00;99087.09;5096068;28;20434;-68
2023/12/19 06:13:37;;;;;;;4.10;3.63;;;;;;;2.06;100.00;99110.47;5096000;28;20392;-66
2023/12/19 06:16:05;;;;;;;4.77;4.37;;;;;;;1.90;100.00;99076.16;5095982;28;20082;-66
2023/12/19 06:18:32;;;;;;;9.27;4.07;;;;;;;2.03;100.00;99095.00;5095641;28;20094;-69
2023/12/19 06:21:01;;;;;;;4.80;3.27;;;;;;;1.98;100.00;99077.06;5095606;28;20089;-67
2023/12/19 06:23:27;;;;;;;5.60;4.05;;;;;;;2.04;100.00;99070.41;5095500;28;20311;-65
2023/12/19 06:25:54;;;;;;;5.17;3.73;;;;;;;2.09;100.00;99068.97;5095670;28;20040;-66
2023/12/19 06:28:20;;;;;;;6.80;3.27;;;;;;;2.03;100.00;99053.00;5095521;28;20281;-67
2023/12/19 06:30:45;;;;;;;3.93;3.23;;;;;;;2.11;100.00;99056.53;5094346;28;20270;-68
2023/12/19 06:33:11;;;;;;;4.40;3.33;;;;;;;2.13;100.00;99049.31;5094184;28;20508;-66
2023/12/19 06:35:43;;;;;;;4.30;3.00;;;;;;;2.07;100.00;99034.16;5098879;28;20055;-68
2023/12/19 06:38:09;;;;;;;3.43;3.13;;;;;;;2.05;100.00;99009.88;5098754;28;20130;-72
2023/12/19 06:40:35;;;;;;;4.33;3.30;;;;;;;2.12;100.00;99008.28;5095639;28;20709;-70
2023/12/19 06:43:03;;;;;;;6.83;3.37;;;;;;;1.10;100.00;98828.59;5095600;28;20486;-68
2023/12/19 06:45:29;;;;;;;6.72;3.03;;;;;;;2.24;100.00;99005.41;5095491;28;20378;-69
2023/12/19 06:47:54;;;;;;;3.73;3.10;;;;;;;2.26;100.00;98998.19;5106213;28;20130;-70
2023/12/19 06:50:20;;;;;;;9.23;4.13;;;;;;;2.24;100.00;98984.38;5116037;28;20126;-70
2023/12/19 06:52:46;;;;;;;7.23;3.87;;;;;;;2.25;100.00;98967.66;5115632;28;20459;-70
2023/12/19 06:55:12;;;;;;;4.60;3.27;;;;;;;2.13;100.00;98943.44;5114292;28;20023;-69
2023/12/19 06:57:38;;;;;;;5.40;3.50;;;;;;;2.16;100.00;98932.63;5105969;28;20262;-70
2023/12/19 07:00:06;;;;;;;4.73;3.23;;;;;;;2.32;100.00;98947.69;5105152;28;20162;-70
2023/12/19 07:02:31;;;;;;;7.55;3.75;;;;;;;2.22;100.00;98926.75;5115191;28;20047;-70
2023/12/19 07:04:57;;;;;;;9.63;4.77;;;;;;;2.26;100.00;98932.53;5115107;28;20027;-71
2023/12/19 07:07:24;;;;;;;7.03;3.93;;;;;;;2.29;100.00;98924.34;5115256;28;20035;-68
2023/12/19 07:09:49;;;;;;;3.57;3.10;;;;;;;2.25;100.00;98920.38;5115577;28;20036;-69
2023/12/19 07:12:15;;;;;;;6.80;4.60;;;;;;;2.27;100.00;98921.03;5115872;28;20276;-70
2023/12/19 07:14:41;;;;;;;5.00;4.10;;;;;;;2.15;100.00;98892.41;5115544;28;20123;-69
2023/12/19 07:17:07;;;;;;;5.70;3.20;;;;;;;2.24;100.00;98897.72;5105523;28;20547;-69
2023/12/19 07:19:34;;;;;;;5.40;4.10;;;;;;;2.04;100.00;98863.81;5105753;28;20048;-71
2023/12/19 07:22:00;;;;;;;9.40;3.83;;;;;;;2.15;100.00;98866.16;5100487;28;20278;-68
2023/12/19 07:24:25;;;;;;;5.67;3.20;;;;;;;1.94;100.00;98823.69;5095162;28;20316;-68
2023/12/19 07:26:52;;;;;;;4.80;3.37;;;;;;;2.25;100.00;98883.59;5093980;28;20282;-69
2023/12/19 07:29:19;;;;;;;6.47;2.80;;;;;;;2.25;100.00;98859.97;5094452;28;20071;-69
2023/12/19 07:31:44;;;;;;;5.30;3.47;;;;;;;2.27;100.00;98852.75;5094242;28;20286;-67
2023/12/19 07:34:10;;;;;;;3.10;2.60;;;;;;;2.16;100.00;98820.53;5094201;28;20323;-67
2023/12/19 07:36:35;;;;;;;5.50;3.20;;;;;;;2.22;100.00;98826.13;5094336;28;20101;-66
2023/12/19 07:39:01;;;;;;;4.20;3.17;;;;;;;2.30;100.00;98824.38;5094223;28;20046;-67
2023/12/19 07:41:27;;;;;;;4.60;2.80;;;;;;;2.26;100.00;98816.97;5097454;28;20047;-66
2023/12/19 07:43:56;;;;;;;4.57;3.00;;;;;;;2.22;100.00;98815.63;5100216;28;20266;-69
2023/12/19 07:46:22;;;;;;;7.65;3.80;;;;;;;2.16;100.00;98801.34;5101578;28;20044;-68
2023/12/19 07:48:48;;;;;;;4.03;2.63;;;;;;;2.25;100.00;98807.44;5102085;28;20039;-67
2023/12/19 07:51:18;;;;;;;3.50;2.73;;;;;;;2.12;100.00;98766.69;5103519;28;20272;-67
2023/12/19 07:53:43;;;;;;;3.10;2.80;;;;;;;2.29;100.00;98788.56;5104057;28;20058;-66
2023/12/19 07:56:09;;;;;;;6.73;2.50;;;;;;;2.21;100.00;98772.78;5105438;27;20745;-66
2023/12/19 07:58:35;;;;;;;5.63;2.43;;;;;;;2.30;100.00;98771.84;5103444;28;20035;-66
2023/12/19 08:01:00;;;;;;;2.97;2.50;;;;;;;2.18;100.00;98758.19;5101799;28;20041;-68
2023/12/19 08:03:28;;;;;;;3.57;2.70;;;;;;;2.30;100.00;98771.00;5101817;28;20039;-66
2023/12/19 08:05:56;;;;;;;4.75;3.03;;;;;;;2.11;100.00;98733.53;5103374;28;20444;-67
2023/12/19 08:08:25;;;;;;;5.77;2.60;;;;;;;2.23;100.00;98746.38;5097569;28;20058;-65
2023/12/19 08:10:54;;;;;;;4.57;2.73;;;;;;;2.17;100.00;98735.53;5098928;28;20266;-70
2023/12/19 08:13:20;;;;;;;11.85;4.15;;;;;;;2.23;100.00;98722.72;5092281;28;20312;-68
2023/12/19 08:15:48;;;;;;;3.77;2.77;;;;;;;2.27;100.00;98724.06;5093345;28;20090;-68
2023/12/19 08:18:14;;;;;;;4.13;2.90;;;;;;;2.22;100.00;98700.91;5093239;28;20329;-68
2023/12/19 08:20:40;;;;;;;6.63;3.63;;;;;;;2.25;100.00;98690.06;5095131;28;20298;-64
2023/12/19 08:23:07;;;;;;;7.67;4.23;;;;;;;2.25;100.00;98674.31;5102181;28;20495;-67
2023/12/19 08:25:33;;;;;;;7.07;3.70;;;;;;;2.30;100.00;98676.44;5105424;28;20744;-67
2023/12/19 08:27:58;;;;;;;4.20;3.30;;;;;;;1.95;100.00;98604.81;5097187;28;20281;-66
2023/12/19 08:30:27;;;;;;;8.03;3.93;;;;;;;2.30;100.00;98647.56;5092122;28;20070;-67
2023/12/19 08:32:54;;;;;;;18.23;6.18;;;;;;;2.27;100.00;98629.50;5091363;28;20036;-69
2023/12/19 08:35:20;;;;;;;9.63;4.53;;;;;;;2.17;100.00;98619.97;5094158;28;20040;-68
2023/12/19 08:37:46;;;;;;;6.93;3.57;;;;;;;2.30;100.00;98618.66;5092311;28;20772;-68
2023/12/19 08:40:12;;;;;;;19.47;7.67;;;;;;;2.32;100.00;98616.72;5093376;28;20254;-67
2023/12/19 08:42:38;;;;;;;28.50;10.23;;;;;;;2.30;100.00;98598.47;5091920;28;20028;-68
2023/12/19 08:45:04;;;;;;;8.13;4.00;;;;;;;2.22;100.00;98577.47;5092963;28;20040;-67
2023/12/19 08:47:31;;;;;;;3.77;3.17;;;;;;;2.02;100.00;98544.59;5091612;28;20804;-66
2023/12/19 08:49:59;;;;;;;11.67;4.70;;;;;;;2.08;100.00;98546.63;5091886;28;20254;-66
2023/12/19 08:52:26;;;;;;;7.55;3.55;;;;;;;2.18;100.00;98548.09;5091364;28;20035;-69
2023/12/19 08:54:52;;;;;;;6.57;3.80;;;;;;;2.32;100.00;98548.44;5092660;28;20044;-69
2023/12/19 08:57:18;;;;;;;7.30;3.23;;;;;;;2.09;100.00;98495.75;5092641;28;20277;-67
2023/12/19 08:59:43;;;;;;;5.13;3.53;;;;;;;2.37;100.00;98506.72;5091092;28;20112;-69
2023/12/19 09:02:09;;;;;;;4.63;2.90;;;;;;;2.33;100.00;98492.28;5093060;28;20371;-67
2023/12/19 09:04:35;;;;;;;6.30;2.90;;;;;;;2.46;100.00;98503.09;5098441;28;20036;-66
2023/12/19 09:07:01;;;;;;;5.50;3.03;;;;;;;2.41;100.00;98468.63;5098622;28;20732;-65
2023/12/19 09:09:27;;;;;;;3.43;2.27;;;;;;;2.53;100.00;98485.69;5100331;28;20395;-65
2023/12/19 09:11:54;;;;;;;3.20;2.70;;;;;;;2.55;100.00;98475.81;5101042;28;20028;-63
2023/12/19 09:14:20;;;;;;;4.70;2.57;;;;;;;2.40;100.00;98441.53;5097028;28;20077;-66
2023/12/19 09:16:49;;;;;;;7.43;3.23;;;;;;;2.53;100.00;98435.75;5096364;28;20765;-69
2023/12/19 09:19:15;;;;;;;5.88;3.20;;;;;;;2.58;100.00;98454.47;5094569;28;20529;-64
2023/12/19 09:21:45;;;;;;;5.17;3.23;;;;;;;2.55;100.00;98441.66;5108679;28;20047;-65
2023/12/19 09:24:10;;;;;;;4.87;3.27;;;;;;;2.42;100.00;98404.59;5112270;28;20806;-65
2023/12/19 09:26:39;;;;;;;5.50;3.03;;;;;;;2.40;100.00;98388.19;5112390;28;20269;-64
2023/12/19 09:29:06;;;;;;;4.53;2.95;;;;;;;2.56;100.00;98403.88;5112751;28;20572;-64
2023/12/19 09:31:32;;;;;;;6.13;2.90;;;;;;;2.29;100.00;98363.09;5111347;28;20135;-65
2023/12/19 09:33:58;;;;;;;6.57;2.97;;;;;;;2.33;100.00;98350.47;5106416;28;20353;-63
2023/12/19 09:36:26;;;;;;;2.47;1.93;;;;;;;2.66;100.00;98403.72;5099963;28;20503;-64
2023/12/19 09:38:52;;;;;;;8.73;3.10;;;;;;;2.75;100.00;98393.00;5081838;28;20697;-67
2023/12/19 09:41:18;;;;;;;2.90;1.93;;;;;;;2.76;100.00;98393.81;5094276;28;20036;-65
2023/12/19 09:43:44;;;;;;;2.30;1.77;;;;;;;2.81;100.00;98396.75;5101946;28;20034;-62
2023/12/19 09:46:13;;;;;;;2.33;1.77;;;;;;;2.67;100.00;98358.88;5100164;28;20372;-65
2023/12/19 09:48:41;;;;;;;4.15;2.05;;;;;;;2.79;100.00;98373.25;5100012;28;20087;-66
2023/12/19 09:51:16;;;;;;;2.85;2.13;;;;;;;2.87;100.00;98375.03;5093396;28;20036;-69
2023/12/19 09:53:42;;;;;;;3.97;1.47;;;;;;;2.93;100.00;98374.34;5103001;28;20115;-65
2023/12/19 09:56:09;;;;;;;1.80;1.60;;;;;;;2.72;100.00;98339.94;5112046;28;20266;-68
2023/12/19 09:58:37;;;;;;;2.67;1.77;;;;;;;2.83;100.00;98344.81;5112015;28;20650;-66
2023/12/19 10:01:02;;;;;;;1.70;1.60;;;;;;;2.92;100.00;98350.88;5112206;28;20352;-65
2023/12/19 10:03:28;;;;;;;3.53;1.57;;;;;;;2.99;100.00;98346.53;5109901;28;20391;-64
2023/12/19 10:05:56;;;;;;;2.10;1.57;;;;;;;2.89;100.00;98340.66;5111249;28;20376;-66
2023/12/19 10:08:22;;;;;;;3.60;1.60;;;;;;;2.97;100.00;98348.53;5111805;28;20295;-66
2023/12/19 10:10:53;;;;;;;7.10;2.93;;;;;;;2.72;100.00;98301.34;5110717;28;20350;-66
2023/12/19 10:13:30;;;;;;;1.70;1.57;;;;;;;3.08;100.00;98353.38;5111187;28;20036;-67
2023/12/19 10:16:08;;;;;;;1.60;1.50;;;;;;;3.05;100.00;98345.84;5112857;28;20307;-68
2023/12/19 10:18:36;;;;;;;2.30;2.00;;;;;;;3.03;100.00;98345.22;5093645;28;20618;-66
2023/12/19 10:21:10;;;;;;;2.73;1.70;;;;;;;2.99;100.00;98334.22;5105651;28;20028;-65
2023/12/19 10:23:36;;;;;;;1.87;1.57;;;;;;;2.56;100.00;98255.94;5110535;28;20699;-67
2023/12/19 10:26:03;;;;;;;2.93;2.30;;;;;;;2.91;100.00;98320.31;5111785;28;20323;-67
2023/12/19 10:28:30;;;;;;;2.37;2.17;;;;;;;3.01;100.00;98334.03;5110469;28;20289;-65
2023/12/19 10:31:15;;;;;;;2.77;2.40;;;;;;;3.02;100.00;98330.41;5111647;28;20269;-68
2023/12/19 10:33:45;;;;;;;2.40;1.80;;;;;;;3.07;100.00;98328.91;5111840;28;20277;-65
2023/12/19 10:36:32;;;;;;;3.07;2.17;;;;;;;3.09;100.00;98336.63;5111934;28;20673;-68
2023/12/19 10:39:03;;;;;;;3.13;2.07;;;;;;;3.02;100.00;98318.09;5111622;28;20292;-66
2023/12/19 10:41:30;;;;;;;4.77;2.00;;;;;;;3.08;100.00;98319.19;5110899;28;20288;-70
2023/12/19 10:43:58;;;;;;;8.87;2.80;;;;;;;3.08;100.00;98321.84;5093502;28;20269;-66
2023/12/19 10:46:26;;;;;;;2.77;2.40;;;;;;;2.98;100.00;98308.91;5112334;28;20324;-64
2023/12/19 10:49:00;;;;;;;2.60;2.30;;;;;;;3.04;100.00;98307.41;5117277;28;20282;-69
2023/12/19 10:51:32;;;;;;;5.03;2.30;;;;;;;3.01;100.00;98295.41;5110130;28;20040;-65
2023/12/19 10:54:08;;;;;;;2.23;2.03;;;;;;;3.14;100.00;98302.72;5110262;28;20261;-65
2023/12/19 10:56:59;;;;;;;3.00;2.43;;;;;;;3.28;100.00;98316.94;5114778;28;20357;-66
2023/12/19 10:59:38;;;;;;;4.53;2.83;;;;;;;3.22;100.00;98300.06;5115739;28;20310;-67
2023/12/19 11:02:16;;;;;;;1.80;1.70;;;;;;;3.20;100.00;98288.06;5115327;28;20271;-67
2023/12/19 11:04:51;;;;;;;2.15;1.83;;;;;;;3.24;100.00;98294.63;5115658;28;20261;-65
2023/12/19 11:07:18;;;;;;;2.37;1.80;;;;;;;3.33;100.00;98312.78;5115385;28;20099;-66
2023/12/19 11:09:49;;;;;;;3.33;1.67;;;;;;;3.33;100.00;98309.34;5113860;28;20265;-67
2023/12/19 11:12:17;;;;;;;2.23;2.03;;;;;;;3.33;100.00;98336.47;5115493;28;20257;-66
2023/12/19 11:14:42;;;;;;;1.50;1.40;;;;;;;3.31;100.00;98327.09;5115456;28;20268;-65
2023/12/19 11:17:20;;;;;;;2.27;2.00;;;;;;;3.17;100.00;98312.88;5113675;28;20294;-66
2023/12/19 11:20:35;;;;;;;1.83;1.70;;;;;;;3.34;100.00;98340.72;5115511;28;20040;-65
2023/12/19 11:23:16;;;;;;;2.50;2.30;;;;;;;3.21;100.00;98316.81;5113922;28;20046;-67
2023/12/19 11:25:47;;;;;;;2.37;1.50;;;;;;;3.26;100.00;98325.00;5114081;28;20285;-64
2023/12/19 11:28:14;;;;;;;2.67;1.40;;;;;;;3.21;100.00;98323.91;5121202;28;20253;-65
2023/12/19 11:30:40;;;;;;;2.20;1.70;;;;;;;3.05;100.00;98293.25;5115132;27;20788;-64